Time;durP1;ratioP1;P1;durP2;ratioP2;P2;SDS_P1;SDS_P2;PMS_P1;PMS_P2;Temp;Humidity;BMP_temperature;BMP_pressure;BME280_temperature;BME280_humidity;BME280_pressure;Samples;Min_cycle;Max_cycle;Signal;HPM_P1;HPM_P2
2022/01/17 00:00:39;;;;;;;7.60;3.20;;;;;;;;;;10417957;28;20022;-75
2022/01/17 00:05:44;;;;;;;17.33;5.73;;;;;;;;;;10420171;28;20041;-78
2022/01/17 00:10:46;;;;;;;;;;;;;;;;;;10386992;28;20787;-78
2022/01/17 00:15:54;;;;;;;11.70;4.37;;;;;;;;;;10409489;28;19929;-79
2022/01/17 00:20:59;;;;;;;14.37;5.87;;;;;;;;;;10377572;28;20037;-78
2022/01/17 00:26:02;;;;;;;;;;;;;;;;;;10387659;28;20124;-78
2022/01/17 00:31:05;;;;;;;15.87;4.77;;;;;;;;;;10373887;28;19921;-77
2022/01/17 00:36:10;;;;;;;17.23;6.27;;;;;;;;;;10378371;28;20129;-78
2022/01/17 00:41:13;;;;;;;9.80;4.67;;;;;;;;;;10399551;28;20484;-78
2022/01/17 00:46:18;;;;;;;20.13;7.63;;;;;;;;;;10381979;28;20426;-78
2022/01/17 00:51:23;;;;;;;16.97;6.77;;;;;;;;;;10389135;28;20066;-76
2022/01/17 00:56:27;;;;;;;8.17;3.93;;;;;;;;;;10382985;28;20301;-77
2022/01/17 01:01:30;;;;;;;15.07;5.20;;;;;;;;;;10410104;28;20093;-77
2022/01/17 01:06:36;;;;;;;15.40;6.77;;;;;;;;;;10412380;28;20334;-78
2022/01/17 01:11:39;;;;;;;15.13;5.93;;;;;;;;;;10391176;28;20515;-77
2022/01/17 01:16:43;;;;;;;10.13;4.53;;;;;;;;;;10405767;28;20056;-76
2022/01/17 01:22:00;;;;;;;9.60;3.50;;;;;;;;;;10389471;28;20045;-77
2022/01/17 01:32:30;;;;;;;17.50;6.53;;;;;;;;;;10413220;28;20029;-77
2022/01/17 01:37:34;;;;;;;19.93;6.93;;;;;;;;;;10418298;28;20041;-77
2022/01/17 01:42:38;;;;;;;11.57;4.77;;;;;;;;;;10408852;28;20045;-77
2022/01/17 01:47:41;;;;;;;15.55;6.95;;;;;;;;;;10418249;28;20069;-78
2022/01/17 01:52:47;;;;;;;19.05;7.20;;;;;;;;;;10410560;28;20083;-79
2022/01/17 01:57:50;;;;;;;11.83;5.10;;;;;;;;;;10398787;28;20038;-78
2022/01/17 02:02:54;;;;;;;14.05;6.43;;;;;;;;;;10418866;28;20064;-79
2022/01/17 02:07:59;;;;;;;12.93;4.72;;;;;;;;;;10424058;28;20495;-79
2022/01/17 02:13:05;;;;;;;7.60;3.27;;;;;;;;;;10406919;28;20222;-77
2022/01/17 02:18:11;;;;;;;4.60;2.60;;;;;;;;;;10404418;28;20049;-77
2022/01/17 02:23:17;;;;;;;8.30;2.23;;;;;;;;;;10413214;28;20038;-76
2022/01/17 02:28:27;;;;;;;7.90;3.60;;;;;;;;;;10400043;28;20492;-77
2022/01/17 02:33:30;;;;;;;12.13;4.30;;;;;;;;;;10412001;28;20034;-78
2022/01/17 02:38:35;;;;;;;9.53;4.73;;;;;;;;;;10407626;28;20037;-77
2022/01/17 02:43:38;;;;;;;11.97;5.10;;;;;;;;;;10393260;28;20515;-77
2022/01/17 02:48:41;;;;;;;9.17;4.17;;;;;;;;;;10405754;28;20104;-77
2022/01/17 02:53:46;;;;;;;10.50;4.72;;;;;;;;;;10413548;28;20029;-79
2022/01/17 02:58:49;;;;;;;11.23;3.57;;;;;;;;;;10400657;28;20137;-80
2022/01/17 03:03:53;;;;;;;16.60;6.97;;;;;;;;;;10404362;28;20061;-79
2022/01/17 03:08:57;;;;;;;10.32;4.45;;;;;;;;;;10386009;28;20398;-78
2022/01/17 03:14:00;;;;;;;8.23;3.20;;;;;;;;;;10407419;28;20118;-79
2022/01/17 03:19:03;;;;;;;12.53;4.93;;;;;;;;;;10402369;28;20041;-76
2022/01/17 03:24:11;;;;;;;13.63;6.90;;;;;;;;;;10376317;28;20029;-79
2022/01/17 03:29:13;;;;;;;;;;;;;;;;;;10400061;28;20100;-79
2022/01/17 03:34:16;;;;;;;4.17;1.97;;;;;;;;;;10382120;28;20443;-80
2022/01/17 03:39:23;;;;;;;4.93;1.97;;;;;;;;;;10398654;28;20115;-80
2022/01/17 03:44:27;;;;;;;8.67;3.53;;;;;;;;;;10412357;28;20044;-78
2022/01/17 03:49:33;;;;;;;11.00;3.73;;;;;;;;;;10408183;28;20045;-79
2022/01/17 03:54:39;;;;;;;14.60;5.13;;;;;;;;;;10422148;28;20464;-79
2022/01/17 03:59:42;;;;;;;12.43;5.27;;;;;;;;;;10406795;28;20048;-78
2022/01/17 04:04:45;;;;;;;9.30;3.87;;;;;;;;;;10417345;28;20033;-79
2022/01/17 04:09:50;;;;;;;2.60;1.40;;;;;;;;;;10396290;28;20041;-78
2022/01/17 04:14:55;;;;;;;7.53;2.77;;;;;;;;;;10410085;28;20146;-80
2022/01/17 04:20:04;;;;;;;9.60;1.77;;;;;;;;;;10391956;28;20053;-77
2022/01/17 04:25:09;;;;;;;13.90;6.00;;;;;;;;;;10398342;28;20345;-77
2022/01/17 04:30:14;;;;;;;9.03;3.47;;;;;;;;;;10396115;28;20068;-78
2022/01/17 04:35:20;;;;;;;6.87;1.87;;;;;;;;;;10412460;28;20037;-78
2022/01/17 04:40:25;;;;;;;7.83;2.43;;;;;;;;;;10407948;28;20361;-77
2022/01/17 04:45:28;;;;;;;4.23;2.10;;;;;;;;;;10381603;28;20042;-81
2022/01/17 04:50:31;;;;;;;5.60;2.37;;;;;;;;;;10397842;28;20128;-80
2022/01/17 04:55:37;;;;;;;10.47;5.10;;;;;;;;;;10382617;28;20052;-79
2022/01/17 05:00:46;;;;;;;6.03;2.37;;;;;;;;;;10379504;28;20060;-80
2022/01/17 05:05:50;;;;;;;5.97;2.53;;;;;;;;;;10395233;28;20042;-79
2022/01/17 05:10:55;;;;;;;4.07;1.53;;;;;;;;;;10404486;28;20072;-78
2022/01/17 05:16:07;;;;;;;5.33;2.33;;;;;;;;;;10403178;28;20335;-78
2022/01/17 05:21:13;;;;;;;7.10;2.70;;;;;;;;;;10421293;28;20110;-75
2022/01/17 05:26:17;;;;;;;8.77;3.73;;;;;;;;;;10422684;28;20402;-77
2022/01/17 05:31:20;;;;;;;7.95;2.55;;;;;;;;;;10388433;28;20041;-77
2022/01/17 05:36:24;;;;;;;7.25;3.65;;;;;;;;;;10393078;28;20026;-79
2022/01/17 05:41:28;;;;;;;13.67;5.20;;;;;;;;;;10391586;28;20052;-77
2022/01/17 05:46:31;;;;;;;;;;;;;;;;;;10401055;28;20037;-77
2022/01/17 05:51:36;;;;;;;8.18;2.83;;;;;;;;;;10389822;28;19983;-79
2022/01/17 05:56:40;;;;;;;5.47;2.17;;;;;;;;;;10385901;28;20146;-81
2022/01/17 06:01:44;;;;;;;7.03;2.17;;;;;;;;;;10399302;28;20463;-77
2022/01/17 06:06:47;;;;;;;9.88;4.18;;;;;;;;;;10404972;28;20085;-79
2022/01/17 06:11:51;;;;;;;8.30;2.30;;;;;;;;;;10405406;28;20068;-79
2022/01/17 06:16:54;;;;;;;10.33;3.20;;;;;;;;;;10398479;28;20097;-82
2022/01/17 06:21:58;;;;;;;4.50;1.83;;;;;;;;;;10403829;28;20113;-79
2022/01/17 06:27:02;;;;;;;4.03;1.87;;;;;;;;;;10391059;28;20041;-81
2022/01/17 06:32:07;;;;;;;4.03;1.70;;;;;;;;;;10411559;28;20120;-81
2022/01/17 06:37:28;;;;;;;5.80;2.97;;;;;;;;;;10407845;28;20056;-78
2022/01/17 06:42:32;;;;;;;7.13;3.50;;;;;;;;;;10405059;28;20095;-83
2022/01/17 06:47:35;;;;;;;8.37;2.90;;;;;;;;;;10381794;28;20060;-80
2022/01/17 06:52:41;;;;;;;7.47;2.83;;;;;;;;;;10390437;28;20034;-79
2022/01/17 06:57:47;;;;;;;5.30;2.77;;;;;;;;;;10423777;28;20141;-79
2022/01/17 07:02:50;;;;;;;6.10;2.73;;;;;;;;;;10381923;28;20034;-80
2022/01/17 07:07:53;;;;;;;11.60;4.53;;;;;;;;;;10412683;28;20041;-78
2022/01/17 07:12:57;;;;;;;8.13;2.93;;;;;;;;;;10419169;28;20033;-77
2022/01/17 07:18:00;;;;;;;3.17;1.57;;;;;;;;;;10426915;28;20076;-79
2022/01/17 07:23:03;;;;;;;5.73;2.30;;;;;;;;;;10438872;28;20020;-79
2022/01/17 07:28:14;;;;;;;5.13;2.67;;;;;;;;;;10413510;28;20041;-77
2022/01/17 07:33:18;;;;;;;4.57;2.47;;;;;;;;;;10433747;28;20030;-78
2022/01/17 07:38:20;;;;;;;9.75;3.03;;;;;;;;;;10418592;28;20038;-78
2022/01/17 07:43:25;;;;;;;6.03;2.73;;;;;;;;;;10419340;28;20049;-81
2022/01/17 07:48:55;;;;;;;10.37;3.77;;;;;;;;;;10397616;28;20053;-80
2022/01/17 07:53:59;;;;;;;10.30;3.97;;;;;;;;;;10417361;28;20083;-79
2022/01/17 07:59:05;;;;;;;5.60;1.73;;;;;;;;;;10395543;28;20128;-79
2022/01/17 08:04:08;;;;;;;7.83;2.63;;;;;;;;;;10406181;28;20043;-81
2022/01/17 08:09:12;;;;;;;;;;;;;;;;;;10410236;28;20062;-78
2022/01/17 08:14:36;;;;;;;5.57;2.77;;;;;;;;;;10408525;28;19933;-79
2022/01/17 08:19:43;;;;;;;13.00;3.90;;;;;;;;;;10412629;28;20041;-80
2022/01/17 08:24:48;;;;;;;4.97;2.47;;;;;;;;;;10415947;28;20038;-79
2022/01/17 08:29:53;;;;;;;9.45;3.38;;;;;;;;;;10410935;28;20064;-77
2022/01/17 08:35:17;;;;;;;11.53;4.40;;;;;;;;;;10423640;28;20102;-79
2022/01/17 08:40:20;;;;;;;6.93;3.38;;;;;;;;;;10421129;28;20935;-80
2022/01/17 08:45:26;;;;;;;7.40;2.40;;;;;;;;;;10402598;28;20633;-79
2022/01/17 08:50:46;;;;;;;6.80;3.10;;;;;;;;;;10420917;28;20066;-80
2022/01/17 08:55:49;;;;;;;;;;;;;;;;;;10424760;28;20068;-78
2022/01/17 09:00:56;;;;;;;9.87;4.23;;;;;;;;;;10422440;28;19925;-79
2022/01/17 09:06:01;;;;;;;8.43;3.73;;;;;;;;;;10423578;28;20018;-80
2022/01/17 09:11:04;;;;;;;9.93;4.60;;;;;;;;;;10414327;28;20065;-80
2022/01/17 09:16:09;;;;;;;5.78;3.08;;;;;;;;;;10405750;28;20064;-79
2022/01/17 09:21:14;;;;;;;7.70;3.40;;;;;;;;;;10419260;28;20131;-79
2022/01/17 09:26:21;;;;;;;5.93;2.13;;;;;;;;;;10403163;28;20044;-80
2022/01/17 09:31:26;;;;;;;5.00;2.47;;;;;;;;;;10418081;28;20030;-78
2022/01/17 09:36:33;;;;;;;8.75;4.43;;;;;;;;;;10419084;28;20044;-78
2022/01/17 09:41:36;;;;;;;9.23;3.20;;;;;;;;;;10402083;28;20552;-80
2022/01/17 09:46:43;;;;;;;10.45;5.47;;;;;;;;;;10384373;28;20100;-80
2022/01/17 09:52:06;;;;;;;9.90;4.63;;;;;;;;;;10396094;28;20042;-81
2022/01/17 09:57:11;;;;;;;8.75;4.50;;;;;;;;;;10418739;28;20047;-81
2022/01/17 10:02:17;;;;;;;6.63;3.30;;;;;;;;;;10412543;28;20038;-79
2022/01/17 10:07:21;;;;;;;8.38;3.03;;;;;;;;;;10417400;28;20029;-81
2022/01/17 10:12:24;;;;;;;4.63;2.40;;;;;;;;;;10421517;28;20038;-80
2022/01/17 10:23:16;;;;;;;5.22;2.67;;;;;;;;;;10607343;27;20408;-75
2022/01/17 10:28:58;;;;;;;5.63;1.95;;;;;;;;;;10600356;28;20035;-75
2022/01/17 10:39:17;;;;;;;6.22;3.15;;;;;;;;;;10464424;28;20046;-69
2022/01/17 10:44:35;;;;;;;3.93;2.30;;;;;;;;;;10443846;28;20297;-69
2022/01/17 10:49:47;;;;;;;5.50;2.15;;;;;;;;;;10430704;28;20037;-69
2022/01/17 10:54:54;;;;;;;6.78;3.05;;;;;;;;;;10420681;28;20098;-69
2022/01/17 10:59:59;;;;;;;10.10;2.90;;;;;;;;;;10422283;28;20509;-69
2022/01/17 11:05:03;;;;;;;14.65;4.68;;;;;;;;;;10420447;28;20033;-71
2022/01/17 11:10:08;;;;;;;7.03;3.15;;;;;;;;;;10426113;28;20033;-69
2022/01/17 11:15:15;;;;;;;4.75;2.50;;;;;;;;;;10421978;28;20052;-70
2022/01/17 11:20:19;;;;;;;7.18;2.83;;;;;;;;;;10424537;28;20050;-69
2022/01/17 11:25:24;;;;;;;5.88;3.45;;;;;;;;;;10423982;28;20588;-70
2022/01/17 11:30:29;;;;;;;8.88;3.97;;;;;;;;;;10415054;28;20401;-70
2022/01/17 11:35:34;;;;;;;8.60;4.30;;;;;;;;;;10390932;28;20439;-70
2022/01/17 11:40:38;;;;;;;6.22;2.88;;;;;;;;;;10392705;28;20117;-69
2022/01/17 11:45:44;;;;;;;4.18;1.65;;;;;;;;;;10396146;28;20497;-69
2022/01/17 11:50:50;;;;;;;5.53;2.03;;;;;;;;;;10396872;28;20033;-69
2022/01/17 11:55:53;;;;;;;3.92;2.28;;;;;;;;;;10398327;28;20069;-70
2022/01/17 12:01:11;;;;;;;5.83;2.37;;;;;;;;;;10395496;28;20052;-71
2022/01/17 12:06:27;;;;;;;8.20;3.95;;;;;;;;;;10394774;28;20041;-69
2022/01/17 12:11:32;;;;;;;8.15;4.18;;;;;;;;;;10384693;28;20072;-69
2022/01/17 12:16:37;;;;;;;7.90;3.22;;;;;;;;;;10406030;28;20191;-70
2022/01/17 12:21:43;;;;;;;8.90;3.90;;;;;;;;;;10393088;28;20038;-69
2022/01/17 12:27:01;;;;;;;7.38;2.75;;;;;;;;;;10388711;28;20111;-71
2022/01/17 12:32:06;;;;;;;5.93;2.67;;;;;;;;;;10392267;28;20038;-69
2022/01/17 12:37:29;;;;;;;4.47;2.13;;;;;;;;;;10396880;28;20930;-68
2022/01/17 12:42:33;;;;;;;5.95;2.22;;;;;;;;;;10389246;28;20107;-68
2022/01/17 12:47:40;;;;;;;7.80;3.35;;;;;;;;;;10384010;28;20033;-69
2022/01/17 12:52:44;;;;;;;5.68;2.55;;;;;;;;;;10391267;28;20038;-69
2022/01/17 12:57:47;;;;;;;6.15;2.85;;;;;;;;;;10387962;28;20136;-68
2022/01/17 13:02:54;;;;;;;7.95;3.60;;;;;;;;;;10382120;28;20497;-70
2022/01/17 13:08:02;;;;;;;4.80;2.15;;;;;;;;;;10382350;28;20557;-69
2022/01/17 13:13:06;;;;;;;4.25;2.42;;;;;;;;;;10386859;28;20033;-70
2022/01/17 13:18:13;;;;;;;4.57;2.60;;;;;;;;;;10388228;28;20030;-69
2022/01/17 13:23:25;;;;;;;4.45;1.45;;;;;;;;;;10380958;28;20386;-70
2022/01/17 13:28:28;;;;;;;2.83;1.63;;;;;;;;;;10380213;28;20042;-71
2022/01/17 13:33:33;;;;;;;4.53;2.03;;;;;;;;;;10386611;28;20038;-70
2022/01/17 13:38:36;;;;;;;4.47;2.15;;;;;;;;;;10382771;28;20038;-69
2022/01/17 13:43:50;;;;;;;2.57;1.53;;;;;;;;;;10383844;28;20030;-70
2022/01/17 13:48:55;;;;;;;5.07;2.70;;;;;;;;;;10386218;28;20033;-70
2022/01/17 13:53:59;;;;;;;3.65;1.55;;;;;;;;;;10387967;28;20037;-69
2022/01/17 13:59:03;;;;;;;5.30;2.30;;;;;;;;;;10388848;28;20038;-68
2022/01/17 14:04:20;;;;;;;2.42;1.30;;;;;;;;;;10387267;28;20342;-68
2022/01/17 14:09:28;;;;;;;6.22;3.10;;;;;;;;;;10413187;28;20034;-70
2022/01/17 14:14:31;;;;;;;5.10;1.83;;;;;;;;;;10391653;28;20115;-72
2022/01/17 14:19:38;;;;;;;4.18;2.03;;;;;;;;;;10386863;28;20547;-71
2022/01/17 14:24:43;;;;;;;5.55;2.10;;;;;;;;;;10396453;28;20048;-71
2022/01/17 14:29:47;;;;;;;2.63;1.30;;;;;;;;;;10403706;28;20099;-71
2022/01/17 14:34:51;;;;;;;;;;;;;;;;;;10406855;28;20441;-70
2022/01/17 14:39:59;;;;;;;1.73;0.82;;;;;;;;;;10417656;28;19947;-71
2022/01/17 14:45:04;;;;;;;5.32;1.50;;;;;;;;;;10432386;28;20041;-71
2022/01/17 14:50:12;;;;;;;2.33;0.93;;;;;;;;;;10410959;28;20045;-71
2022/01/17 14:59:22;;;;;;;2.70;1.30;;;;;;;;;;10418051;28;20035;-69
2022/01/17 15:01:03;;;;;;;3.65;2.03;;;;;;;;;;10413231;28;20108;-69
2022/01/17 15:06:06;;;;;;;1.50;1.13;;;;;;;;;;10392415;28;20044;-67
2022/01/17 15:11:13;;;;;;;5.00;1.92;;;;;;;;;;10395842;28;20045;-69
2022/01/17 15:16:16;;;;;;;1.00;0.60;;;;;;;;;;10394595;28;20033;-68
2022/01/17 15:21:20;;;;;;;0.50;0.50;;;;;;;;;;10395673;28;20136;-69
2022/01/17 15:26:25;;;;;;;1.98;0.45;;;;;;;;;;10393859;28;20299;-69
2022/01/17 15:31:29;;;;;;;1.80;1.13;;;;;;;;;;10391502;28;20045;-69
2022/01/17 15:36:32;;;;;;;1.80;0.73;;;;;;;;;;10390293;28;20033;-69
2022/01/17 15:41:38;;;;;;;2.08;1.42;;;;;;;;;;10391485;28;20485;-68
2022/01/17 15:46:41;;;;;;;2.33;1.30;;;;;;;;;;10391099;28;20190;-70
2022/01/17 15:51:45;;;;;;;4.57;1.83;;;;;;;;;;10386477;28;20060;-68
2022/01/17 15:56:51;;;;;;;4.47;1.77;;;;;;;;;;10395495;28;20056;-69
2022/01/17 16:01:57;;;;;;;1.83;1.27;;;;;;;;;;10394139;28;20072;-68
2022/01/17 16:07:03;;;;;;;2.50;1.20;;;;;;;;;;10388314;28;20100;-68
2022/01/17 16:12:08;;;;;;;1.75;0.95;;;;;;;;;;10396516;28;20033;-69
2022/01/17 16:17:11;;;;;;;5.43;1.50;;;;;;;;;;10388865;28;20050;-68
2022/01/17 16:22:14;;;;;;;3.63;1.80;;;;;;;;;;10394209;28;20065;-70
2022/01/17 16:27:19;;;;;;;1.33;0.93;;;;;;;;;;10393596;28;20466;-70
2022/01/17 16:32:22;;;;;;;4.43;1.60;;;;;;;;;;10414768;22;20038;-80
2022/01/17 16:37:26;;;;;;;3.20;1.10;;;;;;;;;;10408371;28;20391;-81
2022/01/17 16:42:34;;;;;;;1.33;0.63;;;;;;;;;;10436586;28;20311;-79
2022/01/17 16:47:41;;;;;;;0.60;0.47;;;;;;;;;;10438445;28;20029;-77
2022/01/17 16:52:44;;;;;;;1.50;0.83;;;;;;;;;;10442907;28;20055;-78
2022/01/17 16:57:48;;;;;;;3.23;1.53;;;;;;;;;;10435298;28;20065;-79
2022/01/17 17:02:53;;;;;;;3.30;1.57;;;;;;;;;;10426702;28;20041;-78
2022/01/17 17:08:00;;;;;;;3.80;1.80;;;;;;;;;;10432588;28;20121;-79
2022/01/17 17:13:05;;;;;;;2.17;1.45;;;;;;;;;;10430599;28;20041;-79
2022/01/17 17:18:09;;;;;;;1.67;1.13;;;;;;;;;;10422600;28;20064;-78
2022/01/17 17:23:12;;;;;;;2.07;0.90;;;;;;;;;;10425615;28;20034;-81
2022/01/17 17:28:17;;;;;;;0.40;0.40;;;;;;;;;;10429298;28;20375;-78
2022/01/17 17:33:21;;;;;;;1.80;0.77;;;;;;;;;;10437581;28;20041;-77
2022/01/17 17:38:24;;;;;;;1.48;0.95;;;;;;;;;;10433062;28;20033;-79
2022/01/17 17:43:31;;;;;;;2.57;1.40;;;;;;;;;;10414429;28;20691;-80
2022/01/17 17:48:54;;;;;;;1.75;1.27;;;;;;;;;;10427621;28;20064;-78
2022/01/17 17:53:57;;;;;;;1.40;0.60;;;;;;;;;;10421358;28;20052;-79
2022/01/17 17:59:02;;;;;;;1.13;0.90;;;;;;;;;;10427121;28;20048;-79
2022/01/17 18:04:05;;;;;;;3.33;1.30;;;;;;;;;;10426411;28;20176;-77
2022/01/17 18:09:09;;;;;;;5.22;1.95;;;;;;;;;;10442397;28;20107;-79
2022/01/17 18:14:14;;;;;;;3.80;1.88;;;;;;;;;;10426297;28;20037;-79
2022/01/17 18:19:18;;;;;;;2.03;1.70;;;;;;;;;;10424077;28;20109;-77
2022/01/17 18:24:21;;;;;;;8.17;2.23;;;;;;;;;;10420226;28;20045;-79
2022/01/17 18:29:25;;;;;;;4.75;2.22;;;;;;;;;;10414548;28;20113;-78
2022/01/17 18:34:30;;;;;;;3.43;1.83;;;;;;;;;;10420739;28;20037;-79
2022/01/17 18:39:35;;;;;;;6.03;2.73;;;;;;;;;;10415602;28;20029;-79
2022/01/17 18:44:41;;;;;;;1.67;1.23;;;;;;;;;;10425553;28;20146;-77
2022/01/17 18:49:47;;;;;;;5.53;1.87;;;;;;;;;;10430317;28;20042;-79
2022/01/17 18:54:50;;;;;;;2.90;1.47;;;;;;;;;;10424182;28;20053;-77
2022/01/17 18:59:54;;;;;;;6.43;2.17;;;;;;;;;;10415858;28;20167;-77
2022/01/17 19:04:59;;;;;;;1.77;1.00;;;;;;;;;;10457151;28;20048;-77
2022/01/17 19:10:02;;;;;;;2.93;1.60;;;;;;;;;;10445719;28;20567;-77
2022/01/17 19:15:10;;;;;;;2.77;1.53;;;;;;;;;;10443166;28;20124;-78
2022/01/17 19:20:26;;;;;;;2.50;1.63;;;;;;;;;;10436056;28;20064;-77
2022/01/17 19:25:30;;;;;;;4.80;1.83;;;;;;;;;;10448220;28;20393;-76
2022/01/17 19:30:37;;;;;;;4.27;2.30;;;;;;;;;;10446783;28;20042;-78
2022/01/17 19:35:41;;;;;;;5.17;1.90;;;;;;;;;;10434056;28;20052;-78
2022/01/17 19:40:45;;;;;;;3.10;1.57;;;;;;;;;;10445134;28;20095;-80
2022/01/17 19:45:49;;;;;;;3.37;1.57;;;;;;;;;;10441026;28;20032;-78
2022/01/17 19:50:53;;;;;;;3.30;1.60;;;;;;;;;;10443792;28;20465;-81
2022/01/17 19:55:56;;;;;;;4.30;2.43;;;;;;;;;;10446369;28;20045;-78
2022/01/17 20:01:01;;;;;;;2.70;1.48;;;;;;;;;;10462288;28;20071;-74
2022/01/17 20:06:04;;;;;;;3.77;1.73;;;;;;;;;;10464835;28;20037;-78
2022/01/17 20:11:07;;;;;;;4.27;2.47;;;;;;;;;;10470057;28;20013;-77
2022/01/17 20:16:12;;;;;;;3.77;1.93;;;;;;;;;;10475204;28;20116;-79
2022/01/17 20:21:16;;;;;;;4.40;1.13;;;;;;;;;;10441946;28;20045;-80
2022/01/17 20:26:21;;;;;;;3.73;1.83;;;;;;;;;;10432489;28;20434;-80
2022/01/17 20:31:28;;;;;;;3.33;1.70;;;;;;;;;;10433157;28;20033;-77
2022/01/17 20:36:32;;;;;;;4.37;2.30;;;;;;;;;;10442034;28;20037;-80
2022/01/17 20:41:35;;;;;;;4.60;2.00;;;;;;;;;;10431852;28;20150;-78
2022/01/17 20:46:40;;;;;;;3.38;1.70;;;;;;;;;;10436846;28;20033;-81
2022/01/17 20:51:43;;;;;;;2.50;1.40;;;;;;;;;;10416241;28;20624;-79
2022/01/17 20:56:47;;;;;;;6.90;3.07;;;;;;;;;;10421583;28;20093;-81
2022/01/17 21:01:51;;;;;;;2.40;0.97;;;;;;;;;;10438874;28;20097;-80
2022/01/17 21:06:55;;;;;;;3.47;1.67;;;;;;;;;;10438483;28;20117;-79
2022/01/17 21:11:59;;;;;;;5.73;2.70;;;;;;;;;;10434734;28;20093;-79
2022/01/17 21:17:04;;;;;;;5.90;2.17;;;;;;;;;;10422619;28;20109;-83
2022/01/17 21:22:10;;;;;;;4.70;2.33;;;;;;;;;;10414573;28;20037;-81
2022/01/17 21:27:15;;;;;;;3.92;1.17;;;;;;;;;;10422745;28;20129;-81
2022/01/17 21:32:20;;;;;;;6.20;2.27;;;;;;;;;;10421096;28;20046;-80
2022/01/17 21:37:23;;;;;;;3.37;1.70;;;;;;;;;;10425400;28;20049;-80
2022/01/17 21:42:27;;;;;;;7.30;3.83;;;;;;;;;;10427422;28;20148;-79
2022/01/17 21:47:32;;;;;;;4.97;1.77;;;;;;;;;;10425531;28;20353;-79
2022/01/17 21:52:42;;;;;;;4.10;2.43;;;;;;;;;;10428529;28;20064;-78
2022/01/17 21:57:50;;;;;;;2.47;1.30;;;;;;;;;;10419059;28;20432;-78
2022/01/17 22:02:55;;;;;;;4.78;1.52;;;;;;;;;;10404024;28;20033;-77
2022/01/17 22:07:58;;;;;;;3.57;1.73;;;;;;;;;;10413767;28;20041;-77
2022/01/17 22:13:02;;;;;;;8.10;4.03;;;;;;;;;;10415736;28;20050;-77
2022/01/17 22:18:13;;;;;;;2.37;1.37;;;;;;;;;;10434768;28;20765;-77
2022/01/17 22:23:17;;;;;;;3.77;1.83;;;;;;;;;;10411570;28;20025;-79
2022/01/17 22:28:28;;;;;;;5.80;2.50;;;;;;;;;;10416525;28;20076;-79
2022/01/17 22:33:35;;;;;;;5.57;2.47;;;;;;;;;;10428776;28;20041;-78
2022/01/17 22:38:38;;;;;;;4.23;2.23;;;;;;;;;;10430764;28;20072;-77
2022/01/17 22:43:42;;;;;;;5.43;2.13;;;;;;;;;;10427992;28;20056;-76
2022/01/17 22:48:46;;;;;;;5.63;2.20;;;;;;;;;;10426348;28;20135;-77
2022/01/17 22:53:50;;;;;;;5.07;2.07;;;;;;;;;;10432427;28;20033;-78
2022/01/17 22:58:53;;;;;;;4.63;2.30;;;;;;;;;;10435112;28;20482;-77
2022/01/17 23:03:57;;;;;;;3.97;1.60;;;;;;;;;;10421642;28;20044;-76
2022/01/17 23:09:01;;;;;;;6.00;1.87;;;;;;;;;;10424363;28;20370;-77
2022/01/17 23:14:07;;;;;;;4.23;1.90;;;;;;;;;;10423346;28;20029;-79
2022/01/17 23:19:16;;;;;;;6.10;2.80;;;;;;;;;;10423729;28;20409;-78
2022/01/17 23:24:21;;;;;;;6.93;2.13;;;;;;;;;;10423143;28;20041;-77
2022/01/17 23:29:32;;;;;;;5.67;1.90;;;;;;;;;;10440385;28;20065;-77
2022/01/17 23:34:43;;;;;;;6.87;3.30;;;;;;;;;;10438906;28;20533;-77
2022/01/17 23:39:46;;;;;;;6.77;2.83;;;;;;;;;;10429288;28;20109;-77
2022/01/17 23:44:51;;;;;;;6.60;2.30;;;;;;;;;;10429595;28;20161;-76
2022/01/17 23:49:59;;;;;;;4.93;2.67;;;;;;;;;;10441326;28;20060;-76
2022/01/17 23:55:03;;;;;;;6.77;2.10;;;;;;;;;;10438941;28;20076;-76
